Time;durP1;ratioP1;P1;durP2;ratioP2;P2;SDS_P1;SDS_P2;PMS_P1;PMS_P2;Temp;Humidity;BMP_temperature;BMP_pressure;BME280_temperature;BME280_humidity;BME280_pressure;Samples;Min_cycle;Max_cycle;Signal;HPM_P1;HPM_P2
2022/07/29 00:01:43;;;;;;;6.57;4.30;;;22.20;65.80;;;;;;5076094;28;20017;-72
2022/07/29 00:04:08;;;;;;;5.78;3.70;;;22.10;65.80;;;;;;5076284;28;20085;-73
2022/07/29 00:06:34;;;;;;;5.75;4.00;;;22.20;65.90;;;;;;5075944;28;20024;-71
2022/07/29 00:08:59;;;;;;;7.68;4.13;;;22.10;65.80;;;;;;5075754;28;20037;-73
2022/07/29 00:11:25;;;;;;;6.22;3.58;;;22.10;65.90;;;;;;5076075;28;20028;-73
2022/07/29 00:13:50;;;;;;;6.63;4.15;;;22.00;66.10;;;;;;5076016;28;20029;-73
2022/07/29 00:16:16;;;;;;;5.65;3.47;;;22.00;65.80;;;;;;5075830;28;20027;-71
2022/07/29 00:18:42;;;;;;;8.80;3.72;;;22.00;66.00;;;;;;5076026;28;20108;-73
2022/07/29 00:21:07;;;;;;;5.03;3.40;;;22.00;66.10;;;;;;5075793;28;20024;-73
2022/07/29 00:23:33;;;;;;;8.80;3.90;;;22.00;66.20;;;;;;5075599;28;20056;-73
2022/07/29 00:25:58;;;;;;;6.03;3.40;;;22.00;66.10;;;;;;5075881;28;20024;-71
2022/07/29 00:28:24;;;;;;;6.03;3.70;;;22.00;66.10;;;;;;5075770;28;20031;-73
2022/07/29 00:30:49;;;;;;;8.25;3.95;;;22.00;66.10;;;;;;5075691;28;20028;-73
2022/07/29 00:33:15;;;;;;;11.50;3.72;;;21.90;66.20;;;;;;5075706;28;20359;-73
2022/07/29 00:35:43;;;;;;;5.63;3.28;;;21.90;66.20;;;;;;5075447;28;20082;-73
2022/07/29 00:38:10;;;;;;;5.90;3.20;;;22.00;66.30;;;;;;5075364;28;20028;-72
2022/07/29 00:40:36;;;;;;;6.05;3.30;;;21.90;66.30;;;;;;5075420;28;20021;-73
2022/07/29 00:43:01;;;;;;;5.30;3.40;;;21.90;66.40;;;;;;5075553;28;20046;-73
2022/07/29 00:45:27;;;;;;;5.18;3.25;;;21.90;66.40;;;;;;5075504;28;20035;-73
2022/07/29 00:47:53;;;;;;;5.00;2.80;;;21.90;66.50;;;;;;5075410;28;20432;-73
2022/07/29 00:50:18;;;;;;;6.13;3.33;;;21.90;66.50;;;;;;5075858;28;20074;-73
2022/07/29 00:52:44;;;;;;;6.78;3.15;;;21.90;66.60;;;;;;5075250;28;20123;-73
2022/07/29 00:55:14;;;;;;;5.40;2.53;;;21.90;66.60;;;;;;5075380;28;20089;-73
2022/07/29 00:57:41;;;;;;;4.32;3.10;;;21.80;66.70;;;;;;5074079;28;20060;-73
2022/07/29 01:00:10;;;;;;;4.72;2.65;;;21.90;66.90;;;;;;5075341;28;20040;-72
2022/07/29 01:02:36;;;;;;;4.57;3.22;;;21.80;66.90;;;;;;5074877;28;20024;-73
2022/07/29 01:05:04;;;;;;;3.85;2.70;;;21.80;67.10;;;;;;5074957;28;20103;-73
2022/07/29 01:07:31;;;;;;;4.93;2.92;;;21.80;67.10;;;;;;5051586;28;20032;-72
2022/07/29 01:09:58;;;;;;;8.15;2.70;;;21.80;67.20;;;;;;5035883;28;20092;-73
2022/07/29 01:12:31;;;;;;;3.88;2.80;;;21.80;67.20;;;;;;5033775;28;20025;-73
2022/07/29 01:14:58;;;;;;;5.80;2.70;;;21.80;67.30;;;;;;5034744;28;20501;-73
2022/07/29 01:17:31;;;;;;;4.68;2.63;;;21.70;67.50;;;;;;5034828;28;20565;-73
2022/07/29 01:20:22;;;;;;;5.57;2.78;;;21.70;67.40;;;;;;5035008;28;20064;-72
2022/07/29 01:22:59;;;;;;;5.80;2.45;;;21.70;67.50;;;;;;5034584;28;20037;-72
2022/07/29 01:25:52;;;;;;;5.40;2.65;;;21.70;67.50;;;;;;5033666;28;20022;-73
2022/07/29 01:28:38;;;;;;;5.50;2.55;;;21.70;67.70;;;;;;5034882;28;20120;-73
2022/07/29 01:31:05;;;;;;;3.80;2.53;;;21.70;67.70;;;;;;5034947;28;20435;-74
2022/07/29 01:33:51;;;;;;;5.82;2.42;;;21.70;67.80;;;;;;5034523;28;20072;-70
2022/07/29 01:36:31;;;;;;;4.30;2.75;;;21.60;68.00;;;;;;5034309;28;20056;-72
2022/07/29 01:39:11;;;;;;;7.10;2.45;;;21.60;68.30;;;;;;5034539;28;20095;-70
2022/07/29 01:41:43;;;;;;;5.32;2.60;;;21.60;68.30;;;;;;5033069;28;20100;-71
2022/07/29 01:44:14;;;;;;;;;;;21.60;68.40;;;;;;5034688;28;20024;-71
2022/07/29 01:46:49;;;;;;;3.33;2.03;;;21.60;68.40;;;;;;5034410;28;19952;-72
2022/07/29 01:49:25;;;;;;;3.50;2.63;;;21.60;68.50;;;;;;5034255;28;20509;-64
2022/07/29 01:52:13;;;;;;;4.53;2.40;;;21.60;68.50;;;;;;5033891;28;20018;-68
2022/07/29 01:54:42;;;;;;;5.57;2.42;;;21.60;68.70;;;;;;5033794;28;20551;-62
2022/07/29 01:57:12;;;;;;;5.82;2.38;;;21.50;68.70;;;;;;5034048;28;20025;-72
2022/07/29 01:59:40;;;;;;;7.78;2.60;;;21.60;68.90;;;;;;5032721;28;20025;-66
2022/07/29 02:02:08;;;;;;;3.40;2.80;;;21.50;68.90;;;;;;5034220;28;20018;-73
2022/07/29 02:04:36;;;;;;;4.50;2.55;;;21.50;68.90;;;;;;5033621;28;20036;-72
2022/07/29 02:07:05;;;;;;;4.75;2.78;;;21.50;69.00;;;;;;5034113;28;20467;-73
2022/07/29 02:09:34;;;;;;;5.60;3.40;;;21.50;69.00;;;;;;5033409;28;20056;-71
2022/07/29 02:12:01;;;;;;;7.15;2.67;;;21.50;69.10;;;;;;5032749;28;20072;-73
2022/07/29 02:14:32;;;;;;;3.03;2.70;;;21.40;69.20;;;;;;5033809;28;20052;-72
2022/07/29 02:17:00;;;;;;;5.72;2.58;;;21.40;69.10;;;;;;5034043;28;20022;-72
2022/07/29 02:19:27;;;;;;;6.05;2.25;;;21.40;69.20;;;;;;5033405;28;20033;-65
2022/07/29 02:21:54;;;;;;;5.63;3.00;;;21.40;69.40;;;;;;5033820;28;20018;-63
2022/07/29 02:24:22;;;;;;;4.75;2.80;;;21.40;69.40;;;;;;5033506;28;20595;-60
2022/07/29 02:26:49;;;;;;;4.88;2.80;;;21.30;69.40;;;;;;5033661;28;20111;-61
2022/07/29 02:29:16;;;;;;;6.47;2.80;;;21.30;69.50;;;;;;5033542;28;20045;-61
2022/07/29 02:31:46;;;;;;;3.42;2.60;;;21.40;69.70;;;;;;5033513;28;20022;-61
2022/07/29 02:34:12;;;;;;;3.30;2.75;;;21.30;69.80;;;;;;5033145;28;20108;-62
2022/07/29 02:36:39;;;;;;;6.60;2.75;;;21.30;70.00;;;;;;5033420;28;20102;-63
2022/07/29 02:39:06;;;;;;;7.85;3.20;;;21.20;70.00;;;;;;5032352;28;20485;-62
2022/07/29 02:41:51;;;;;;;5.40;2.80;;;21.20;70.10;;;;;;5033430;28;20103;-62
2022/07/29 02:44:19;;;;;;;11.43;3.30;;;21.20;70.20;;;;;;5033336;28;20092;-62
2022/07/29 02:46:50;;;;;;;95.55;90.35;;;21.30;70.50;;;;;;5033310;28;20013;-61
2022/07/29 02:49:27;;;;;;;122.22;115.65;;;21.30;70.70;;;;;;5032834;28;20045;-62
2022/07/29 02:52:01;;;;;;;100.18;94.68;;;21.20;70.80;;;;;;5032056;28;20013;-63
2022/07/29 02:54:45;;;;;;;99.88;94.40;;;21.20;71.00;;;;;;5033188;28;20029;-61
2022/07/29 02:57:32;;;;;;;88.43;83.75;;;21.20;71.00;;;;;;5033390;28;20017;-65
2022/07/29 03:00:03;;;;;;;103.32;97.68;;;21.20;71.20;;;;;;5033360;28;20026;-68
2022/07/29 03:02:33;;;;;;;80.13;75.80;;;21.20;71.40;;;;;;5032913;28;20018;-71
2022/07/29 03:05:00;;;;;;;106.75;100.93;;;21.10;71.30;;;;;;5033119;28;20025;-72
2022/07/29 03:07:27;;;;;;;79.80;75.43;;;21.10;71.40;;;;;;5033166;28;20024;-61
2022/07/29 03:09:53;;;;;;;106.13;100.60;;;21.00;71.50;;;;;;5032858;28;20446;-61
2022/07/29 03:12:19;;;;;;;110.40;104.38;;;21.00;71.60;;;;;;5032893;28;20049;-65
2022/07/29 03:14:46;;;;;;;110.90;104.38;;;21.00;71.50;;;;;;5033141;28;20063;-65
2022/07/29 03:17:13;;;;;;;105.97;100.28;;;21.00;71.60;;;;;;5032587;28;20468;-61
2022/07/29 03:19:39;;;;;;;106.97;101.30;;;21.00;71.80;;;;;;5033081;28;20087;-61
2022/07/29 03:22:05;;;;;;;108.13;102.43;;;21.00;71.80;;;;;;5036048;28;20025;-62
2022/07/29 03:24:33;;;;;;;109.40;103.45;;;21.00;71.90;;;;;;5037194;28;20375;-62
2022/07/29 03:26:58;;;;;;;108.72;102.80;;;21.00;71.90;;;;;;5036916;28;20021;-63
2022/07/29 03:29:25;;;;;;;97.30;91.78;;;21.00;71.90;;;;;;5036858;28;20044;-66
2022/07/29 03:31:50;;;;;;;109.10;103.28;;;21.00;72.00;;;;;;5036659;28;20079;-62
2022/07/29 03:34:16;;;;;;;87.60;82.60;;;20.90;72.10;;;;;;5036914;28;20025;-61
2022/07/29 03:36:42;;;;;;;102.00;96.60;;;20.90;72.10;;;;;;5036691;28;20029;-73
2022/07/29 03:39:08;;;;;;;102.03;96.53;;;20.90;72.30;;;;;;5036823;28;20378;-64
2022/07/29 03:41:36;;;;;;;91.55;86.57;;;20.90;72.40;;;;;;5036774;28;20037;-73
2022/07/29 03:44:03;;;;;;;102.82;97.28;;;20.90;72.40;;;;;;5036804;28;20378;-72
2022/07/29 03:46:31;;;;;;;63.28;58.97;;;20.90;72.60;;;;;;5036225;28;20021;-73
2022/07/29 03:49:00;;;;;;;93.78;88.72;;;20.90;72.70;;;;;;5036684;28;20038;-72
2022/07/29 03:51:26;;;;;;;89.70;84.90;;;20.80;72.50;;;;;;5036267;28;20026;-72
2022/07/29 03:53:52;;;;;;;92.55;87.28;;;20.90;72.70;;;;;;5036699;28;20092;-71
2022/07/29 03:56:21;;;;;;;92.18;87.25;;;20.90;72.90;;;;;;5036285;28;20060;-72
2022/07/29 03:58:49;;;;;;;95.65;90.28;;;20.80;72.90;;;;;;5036095;28;20095;-73
2022/07/29 04:01:17;;;;;;;102.55;97.03;;;20.80;73.00;;;;;;5035838;28;20109;-72
2022/07/29 04:03:45;;;;;;;97.05;91.82;;;20.80;73.20;;;;;;5036067;28;20493;-72
2022/07/29 04:06:11;;;;;;;90.70;86.03;;;20.80;73.30;;;;;;5036058;28;20379;-71
2022/07/29 04:08:37;;;;;;;99.45;94.00;;;20.80;73.50;;;;;;5036230;28;20079;-71
2022/07/29 04:11:04;;;;;;;99.60;93.95;;;20.80;73.50;;;;;;5036254;28;20029;-73
2022/07/29 04:13:30;;;;;;;88.38;83.60;;;20.70;73.60;;;;;;5035937;28;20105;-72
2022/07/29 04:15:56;;;;;;;90.88;85.53;;;20.70;73.90;;;;;;5035966;28;20022;-71
2022/07/29 04:18:22;;;;;;;93.07;87.72;;;20.70;74.00;;;;;;5036010;28;20594;-71
2022/07/29 04:20:47;;;;;;;96.13;90.85;;;20.70;74.20;;;;;;5036119;28;20033;-73
2022/07/29 04:23:13;;;;;;;97.93;92.20;;;20.70;74.50;;;;;;5036080;28;20025;-64
2022/07/29 04:25:40;;;;;;;93.57;88.43;;;20.70;74.70;;;;;;5036099;28;20101;-65
2022/07/29 04:28:07;;;;;;;87.22;82.30;;;20.70;74.60;;;;;;5035790;28;20406;-69
2022/07/29 04:30:33;;;;;;;92.65;87.68;;;20.70;75.00;;;;;;5035719;28;20049;-63
2022/07/29 04:33:00;;;;;;;82.53;77.75;;;20.70;75.10;;;;;;5034229;28;20484;-65
2022/07/29 04:35:27;;;;;;;82.35;77.82;;;20.70;75.40;;;;;;5034387;28;20537;-62
2022/07/29 04:37:52;;;;;;;73.88;69.50;;;20.60;75.60;;;;;;5035693;28;20021;-62
2022/07/29 04:40:18;;;;;;;94.35;89.20;;;20.60;75.60;;;;;;5035605;28;20390;-72
2022/07/29 04:42:45;;;;;;;87.35;82.53;;;20.60;75.50;;;;;;5035353;28;20133;-72
2022/07/29 04:45:10;;;;;;;97.82;92.28;;;20.50;75.70;;;;;;5035321;28;20116;-72
2022/07/29 04:47:36;;;;;;;97.35;92.13;;;20.50;75.80;;;;;;5035432;28;20014;-73
2022/07/29 04:50:02;;;;;;;79.70;75.13;;;20.50;76.00;;;;;;5035308;28;20494;-77
2022/07/29 04:52:27;;;;;;;86.95;82.00;;;20.50;76.90;;;;;;5035292;28;20026;-77
2022/07/29 04:54:53;;;;;;;77.82;73.25;;;20.60;76.70;;;;;;5035481;28;20032;-76
2022/07/29 04:57:18;;;;;;;69.47;65.55;;;20.60;76.50;;;;;;5035478;28;20104;-77
2022/07/29 04:59:44;;;;;;;82.60;78.00;;;20.70;76.60;;;;;;5036203;28;20033;-70
2022/07/29 05:02:09;;;;;;;56.75;53.55;;;20.70;76.50;;;;;;5039230;28;20026;-77
2022/07/29 05:04:35;;;;;;;46.05;43.58;;;20.70;76.50;;;;;;5035936;28;20083;-77
2022/07/29 05:07:00;;;;;;;85.68;80.90;;;20.70;76.60;;;;;;5057533;28;20059;-74
2022/07/29 05:09:26;;;;;;;75.90;71.45;;;20.70;76.50;;;;;;5065077;28;20543;-77
2022/07/29 05:11:52;;;;;;;65.47;61.80;;;20.70;77.20;;;;;;5043540;28;20048;-77
2022/07/29 05:14:17;;;;;;;83.63;78.90;;;20.80;76.60;;;;;;5039457;28;20475;-77
2022/07/29 05:16:43;;;;;;;64.18;60.22;;;20.70;76.70;;;;;;5042559;28;20509;-73
2022/07/29 05:19:09;;;;;;;84.90;79.82;;;20.70;76.90;;;;;;5040571;28;20394;-77
2022/07/29 05:21:34;;;;;;;89.00;84.05;;;20.70;77.00;;;;;;5054958;28;20025;-76
2022/07/29 05:24:00;;;;;;;72.43;68.45;;;20.70;77.00;;;;;;5045475;28;20482;-76
2022/07/29 05:26:26;;;;;;;69.43;65.05;;;20.70;77.00;;;;;;5044147;28;20080;-77
2022/07/29 05:28:52;;;;;;;44.53;41.35;;;20.80;77.00;;;;;;5041181;28;20036;-77
2022/07/29 05:31:17;;;;;;;92.90;87.90;;;20.70;77.00;;;;;;5043277;28;20112;-77
2022/07/29 05:33:43;;;;;;;87.68;82.53;;;20.70;77.10;;;;;;5039006;28;20021;-70
2022/07/29 05:36:08;;;;;;;78.97;74.13;;;20.70;77.30;;;;;;5037319;28;20086;-77
2022/07/29 05:38:35;;;;;;;65.28;61.45;;;20.70;77.40;;;;;;5034802;28;20025;-76
2022/07/29 05:41:01;;;;;;;74.85;70.53;;;20.70;77.30;;;;;;5035154;28;20021;-78
2022/07/29 05:43:30;;;;;;;70.90;66.70;;;20.80;77.50;;;;;;5032330;28;20430;-77
2022/07/29 05:45:56;;;;;;;75.47;71.00;;;20.80;78.20;;;;;;5041791;28;20025;-77
2022/07/29 05:48:22;;;;;;;73.55;69.50;;;20.80;77.60;;;;;;5034330;28;20104;-77
2022/07/29 05:50:48;;;;;;;91.38;86.60;;;20.80;77.70;;;;;;5034230;28;20108;-77
2022/07/29 05:53:13;;;;;;;92.85;87.72;;;20.80;77.70;;;;;;5043843;28;20576;-79
2022/07/29 05:55:39;;;;;;;65.43;61.38;;;20.80;77.60;;;;;;5035120;28;20104;-73
2022/07/29 05:58:04;;;;;;;93.70;88.22;;;20.80;77.70;;;;;;5051742;28;20048;-69
2022/07/29 06:00:30;;;;;;;67.78;63.95;;;20.80;77.80;;;;;;5052297;28;20025;-70
2022/07/29 06:02:56;;;;;;;87.18;82.15;;;20.80;77.70;;;;;;5036413;28;20379;-70
2022/07/29 06:05:22;;;;;;;63.45;59.63;;;20.80;77.90;;;;;;5040273;28;20018;-61
2022/07/29 06:07:47;;;;;;;84.78;80.10;;;20.80;77.80;;;;;;5027861;28;20032;-73
2022/07/29 06:10:13;;;;;;;82.88;78.18;;;20.80;77.90;;;;;;5034546;28;20060;-74
2022/07/29 06:12:39;;;;;;;75.80;71.50;;;20.80;78.70;;;;;;5032336;28;20490;-73
2022/07/29 06:15:05;;;;;;;45.95;43.40;;;20.80;79.20;;;;;;5032654;28;20072;-73
2022/07/29 06:17:31;;;;;;;86.20;81.40;;;20.90;79.00;;;;;;5033772;28;20152;-71
2022/07/29 06:19:56;;;;;;;85.95;81.10;;;21.00;78.80;;;;;;5033207;28;20107;-73
2022/07/29 06:22:22;;;;;;;101.47;95.95;;;21.10;78.70;;;;;;5033315;28;20018;-70
2022/07/29 06:24:47;;;;;;;96.68;91.43;;;21.20;78.80;;;;;;5032579;28;20109;-73
2022/07/29 06:27:13;;;;;;;109.75;103.72;;;21.20;78.80;;;;;;5048240;28;20033;-65
2022/07/29 06:29:39;;;;;;;98.85;93.35;;;21.30;78.50;;;;;;5045467;28;20068;-74
2022/07/29 06:32:05;;;;;;;106.53;100.38;;;21.40;78.30;;;;;;5039098;28;20052;-62
2022/07/29 06:34:30;;;;;;;114.82;108.30;;;21.50;77.90;;;;;;5032865;28;20041;-71
2022/07/29 06:36:56;;;;;;;120.22;113.75;;;21.60;77.10;;;;;;5041081;28;20033;-62
2022/07/29 06:39:21;;;;;;;115.00;108.30;;;21.60;76.80;;;;;;5043198;28;20029;-67
2022/07/29 06:41:51;;;;;;;114.00;107.35;;;21.60;76.70;;;;;;5052762;28;20542;-71
2022/07/29 06:44:17;;;;;;;99.18;93.90;;;21.60;76.80;;;;;;5037940;28;20022;-63
2022/07/29 06:46:43;;;;;;;125.90;118.57;;;21.70;76.70;;;;;;5034306;28;20044;-62
2022/07/29 06:49:09;;;;;;;109.10;103.05;;;21.60;77.00;;;;;;5034551;28;21232;-72
2022/07/29 06:51:35;;;;;;;94.65;89.30;;;21.70;76.90;;;;;;5032417;28;20026;-73
2022/07/29 06:54:02;;;;;;;109.20;102.95;;;21.70;76.90;;;;;;5032292;28;20034;-67
2022/07/29 06:56:31;;;;;;;131.27;123.78;;;21.80;77.30;;;;;;5036265;28;20028;-63
2022/07/29 06:58:57;;;;;;;123.47;116.72;;;21.90;77.10;;;;;;5043357;28;20088;-65
2022/07/29 07:01:23;;;;;;;123.72;116.85;;;21.90;76.80;;;;;;5034346;28;20471;-60
2022/07/29 07:03:48;;;;;;;117.20;110.47;;;22.00;76.90;;;;;;5034986;28;20057;-60
2022/07/29 07:06:14;;;;;;;120.78;114.20;;;22.00;77.30;;;;;;5033842;28;20032;-61
2022/07/29 07:08:39;;;;;;;113.40;106.72;;;22.00;77.40;;;;;;5030177;28;20441;-62
2022/07/29 07:11:06;;;;;;;106.28;100.40;;;22.10;76.90;;;;;;5037636;28;20116;-67
2022/07/29 07:13:34;;;;;;;118.75;112.43;;;22.20;76.60;;;;;;5050049;28;20096;-61
2022/07/29 07:16:00;;;;;;;82.65;77.82;;;22.20;76.60;;;;;;5040356;28;20034;-66
2022/07/29 07:18:26;;;;;;;127.28;120.35;;;22.30;76.80;;;;;;5043139;28;20745;-60
2022/07/29 07:20:51;;;;;;;124.93;118.18;;;22.30;76.40;;;;;;5047512;28;20506;-65
2022/07/29 07:23:17;;;;;;;127.45;120.53;;;22.30;76.30;;;;;;5039072;28;20090;-60
2022/07/29 07:25:43;;;;;;;129.15;122.03;;;22.40;76.40;;;;;;5045384;28;20029;-60
2022/07/29 07:28:08;;;;;;;121.60;115.07;;;22.50;76.60;;;;;;5036520;28;20021;-60
2022/07/29 07:30:34;;;;;;;127.55;120.82;;;22.40;76.50;;;;;;5038096;28;20037;-60
2022/07/29 07:33:00;;;;;;;124.00;117.30;;;22.50;76.30;;;;;;5047853;28;20017;-62
2022/07/29 07:35:27;;;;;;;118.28;112.13;;;22.50;76.50;;;;;;5049486;28;20371;-62
2022/07/29 07:37:53;;;;;;;138.13;130.82;;;22.50;76.60;;;;;;5037239;28;20022;-61
2022/07/29 07:40:19;;;;;;;123.05;116.40;;;22.60;76.40;;;;;;5039260;28;20048;-62
2022/07/29 07:42:44;;;;;;;137.32;129.70;;;22.70;75.90;;;;;;5036714;28;20021;-62
2022/07/29 07:45:11;;;;;;;130.30;123.45;;;22.80;75.40;;;;;;5045145;28;20053;-61
2022/07/29 07:47:37;;;;;;;133.00;125.95;;;22.90;74.80;;;;;;5045804;28;20087;-61
2022/07/29 07:50:06;;;;;;;127.88;121.25;;;22.90;75.20;;;;;;5052313;28;20375;-61
2022/07/29 07:52:33;;;;;;;132.38;125.38;;;22.90;75.20;;;;;;5051848;28;20387;-60
2022/07/29 07:54:58;;;;;;;133.32;126.07;;;22.90;75.10;;;;;;5047915;28;20036;-60
2022/07/29 07:57:24;;;;;;;132.85;125.78;;;23.10;75.30;;;;;;5041277;28;20021;-60
2022/07/29 07:59:50;;;;;;;130.48;123.75;;;23.20;74.20;;;;;;5049110;28;20033;-66
2022/07/29 08:02:15;;;;;;;138.77;131.32;;;23.20;73.60;;;;;;5032931;28;20104;-64
2022/07/29 08:04:41;;;;;;;134.93;127.72;;;23.20;74.10;;;;;;5032693;28;20026;-64
2022/07/29 08:07:07;;;;;;;133.05;126.05;;;23.30;73.80;;;;;;5044650;28;20171;-65
2022/07/29 08:09:34;;;;;;;143.13;135.63;;;23.30;73.80;;;;;;5056019;28;20041;-66
2022/07/29 08:12:02;;;;;;;130.00;123.07;;;23.30;73.60;;;;;;5052719;28;20014;-70
2022/07/29 08:14:27;;;;;;;137.93;130.63;;;23.40;73.20;;;;;;5040772;28;20017;-74
2022/07/29 08:16:53;;;;;;;140.88;133.48;;;23.40;73.30;;;;;;5041137;28;20105;-75
2022/07/29 08:19:19;;;;;;;132.48;125.28;;;23.50;72.70;;;;;;5039126;28;20036;-74
2022/07/29 08:21:45;;;;;;;134.32;127.22;;;23.50;72.40;;;;;;5052367;28;20031;-75
2022/07/29 08:26:54;;;;;;;124.80;118.30;;;23.60;73.10;;;;;;5052617;28;20040;-70
2022/07/29 08:29:20;;;;;;;132.52;125.82;;;23.50;73.10;;;;;;5053119;28;20044;-75
2022/07/29 08:31:46;;;;;;;136.05;128.93;;;23.60;72.60;;;;;;5050635;28;20478;-74
2022/07/29 08:34:11;;;;;;;131.98;125.18;;;23.70;71.30;;;;;;5037173;28;20029;-62
2022/07/29 08:36:38;;;;;;;136.10;128.82;;;23.70;72.00;;;;;;5045130;28;20029;-63
2022/07/29 08:39:03;;;;;;;127.53;120.75;;;23.70;72.30;;;;;;5035540;28;20025;-67
2022/07/29 08:41:29;;;;;;;124.85;118.50;;;23.70;71.90;;;;;;5052738;28;20039;-61
2022/07/29 08:43:55;;;;;;;121.57;115.35;;;23.70;71.60;;;;;;5043041;28;20053;-60
2022/07/29 08:46:22;;;;;;;134.00;126.93;;;23.70;71.50;;;;;;5040612;28;20475;-61
2022/07/29 08:48:47;;;;;;;121.88;115.43;;;23.80;70.70;;;;;;5041882;28;20022;-65
2022/07/29 08:51:15;;;;;;;117.38;111.20;;;24.00;69.10;;;;;;5054131;28;20502;-61
2022/07/29 08:53:43;;;;;;;126.90;120.50;;;24.00;69.30;;;;;;5050982;28;20033;-62
2022/07/29 08:56:12;;;;;;;123.68;117.30;;;24.00;69.60;;;;;;5052010;28;20028;-61
2022/07/29 08:58:38;;;;;;;125.72;119.30;;;24.00;70.10;;;;;;5051875;28;20025;-61
2022/07/29 09:01:04;;;;;;;131.60;124.88;;;24.00;69.90;;;;;;5041846;28;20483;-70
2022/07/29 09:03:32;;;;;;;130.40;123.68;;;24.00;70.10;;;;;;5046508;28;20017;-60
2022/07/29 09:05:59;;;;;;;121.15;115.05;;;24.00;69.70;;;;;;5037565;28;20047;-66
2022/07/29 09:08:25;;;;;;;125.75;119.45;;;24.10;69.70;;;;;;5035570;28;20025;-65
2022/07/29 09:10:51;;;;;;;126.18;119.72;;;24.00;69.80;;;;;;5038825;28;20037;-62
2022/07/29 09:13:17;;;;;;;120.45;114.40;;;24.00;69.70;;;;;;5038576;28;20029;-66
2022/07/29 09:15:43;;;;;;;122.75;116.43;;;24.00;69.10;;;;;;5042292;28;20089;-61
2022/07/29 09:18:09;;;;;;;129.25;122.60;;;24.10;67.60;;;;;;5033304;28;20086;-66
2022/07/29 09:23:19;;;;;;;118.38;112.35;;;24.20;67.10;;;;;;5036228;28;20096;-62
2022/07/29 09:25:44;;;;;;;112.70;107.07;;;24.30;66.00;;;;;;5049506;28;20033;-65
2022/07/29 09:28:16;;;;;;;109.45;103.75;;;24.30;66.70;;;;;;5049036;28;20071;-68
2022/07/29 09:30:56;;;;;;;113.60;107.78;;;24.30;67.20;;;;;;5050513;28;20030;-75
2022/07/29 09:33:23;;;;;;;123.00;116.70;;;24.20;67.20;;;;;;5034392;28;20018;-76
2022/07/29 09:36:03;;;;;;;117.00;110.85;;;24.30;67.20;;;;;;5034369;28;20548;-77
2022/07/29 09:38:29;;;;;;;102.45;97.15;;;24.30;68.00;;;;;;5034458;28;20029;-77
2022/07/29 09:41:00;;;;;;;108.15;102.38;;;24.30;64.00;;;;;;5034407;28;20018;-69
2022/07/29 09:43:26;;;;;;;111.03;105.40;;;24.30;65.20;;;;;;5034849;28;20105;-75
2022/07/29 09:45:52;;;;;;;114.47;108.72;;;24.30;65.70;;;;;;5034248;28;20108;-70
2022/07/29 09:48:22;;;;;;;118.15;112.07;;;24.30;65.90;;;;;;5034268;28;20021;-69
2022/07/29 09:50:49;;;;;;;122.22;116.18;;;24.30;68.50;;;;;;5033961;28;20032;-75
2022/07/29 09:53:33;;;;;;;118.93;112.93;;;24.30;68.20;;;;;;5034213;28;20029;-76
2022/07/29 09:55:58;;;;;;;119.97;113.55;;;24.20;67.30;;;;;;5034232;28;20483;-75
2022/07/29 09:58:24;;;;;;;120.78;114.57;;;24.20;67.50;;;;;;5045090;28;20048;-72
2022/07/29 10:00:51;;;;;;;107.53;101.90;;;24.40;66.30;;;;;;5039763;28;20505;-73
2022/07/29 10:03:17;;;;;;;120.10;114.10;;;24.30;65.30;;;;;;5039139;28;20065;-63
2022/07/29 10:05:44;;;;;;;106.07;100.68;;;24.30;67.00;;;;;;5049011;28;20029;-74
2022/07/29 10:08:12;;;;;;;124.85;118.65;;;24.40;65.10;;;;;;5054011;28;20477;-75
2022/07/29 10:10:41;;;;;;;121.07;114.93;;;24.30;68.20;;;;;;5044420;28;20032;-68
2022/07/29 10:13:13;;;;;;;88.68;84.10;;;24.30;67.20;;;;;;5044664;28;20025;-75
2022/07/29 10:15:44;;;;;;;116.95;110.97;;;24.30;64.80;;;;;;5033825;28;20036;-64
2022/07/29 10:18:12;;;;;;;124.18;118.07;;;24.30;68.60;;;;;;5033450;28;20022;-61
2022/07/29 10:20:38;;;;;;;112.78;106.90;;;24.30;65.40;;;;;;5034596;28;20025;-63
2022/07/29 10:23:04;;;;;;;129.88;123.43;;;24.30;65.50;;;;;;5035005;28;20029;-67
2022/07/29 10:25:31;;;;;;;125.15;118.65;;;24.20;68.50;;;;;;5037335;28;20022;-63
2022/07/29 10:27:58;;;;;;;117.80;111.80;;;24.30;65.80;;;;;;5036278;28;20064;-61
2022/07/29 10:30:25;;;;;;;117.68;111.47;;;24.30;67.80;;;;;;5041042;28;20042;-60
2022/07/29 10:32:53;;;;;;;123.28;117.10;;;24.30;66.70;;;;;;5036299;28;20026;-76
2022/07/29 10:35:43;;;;;;;102.97;97.80;;;24.40;67.60;;;;;;5036315;28;20038;-61
2022/07/29 10:38:36;;;;;;;115.65;109.90;;;24.30;64.90;;;;;;5043656;28;20029;-67
2022/07/29 10:41:26;;;;;;;86.03;81.65;;;24.30;65.70;;;;;;5034819;28;20105;-68
2022/07/29 10:44:02;;;;;;;117.63;111.70;;;24.20;63.50;;;;;;5032025;28;20406;-61
2022/07/29 10:46:34;;;;;;;123.05;116.72;;;24.10;66.80;;;;;;5041521;28;20103;-60
2022/07/29 10:49:15;;;;;;;124.78;118.70;;;24.10;66.10;;;;;;5038607;28;20022;-61
2022/07/29 10:52:06;;;;;;;113.25;107.45;;;24.20;67.70;;;;;;5036855;28;20037;-62
2022/07/29 10:54:44;;;;;;;126.13;119.30;;;24.20;68.00;;;;;;5045573;28;20483;-64
2022/07/29 10:57:31;;;;;;;122.07;116.03;;;24.30;67.70;;;;;;5048772;28;20021;-61
2022/07/29 11:00:13;;;;;;;127.75;121.18;;;24.20;68.20;;;;;;5049418;28;20428;-61
2022/07/29 11:02:44;;;;;;;114.70;108.77;;;24.20;68.20;;;;;;5049860;28;20060;-61
2022/07/29 11:05:19;;;;;;;121.53;115.10;;;24.20;66.50;;;;;;5046904;28;20501;-61
2022/07/29 11:08:17;;;;;;;124.30;118.03;;;24.30;64.30;;;;;;5041310;28;20048;-63
2022/07/29 11:10:42;;;;;;;126.75;120.15;;;24.30;67.20;;;;;;5027035;28;20123;-60
2022/07/29 11:13:08;;;;;;;118.40;112.53;;;24.30;64.20;;;;;;5044971;28;20550;-62
2022/07/29 11:15:53;;;;;;;106.30;100.85;;;24.30;65.90;;;;;;5029995;28;20021;-68
2022/07/29 11:18:19;;;;;;;104.60;99.03;;;24.40;66.50;;;;;;5035377;28;20025;-71
2022/07/29 11:20:47;;;;;;;110.57;104.88;;;24.30;65.00;;;;;;5032411;28;20393;-65
2022/07/29 11:23:43;;;;;;;109.57;104.13;;;24.40;63.60;;;;;;5037222;28;20104;-70
2022/07/29 11:26:25;;;;;;;121.15;114.85;;;24.40;66.90;;;;;;5047560;28;20162;-68
2022/07/29 11:29:05;;;;;;;105.70;100.28;;;24.40;68.10;;;;;;5043154;28;20383;-66
2022/07/29 11:31:44;;;;;;;103.70;98.20;;;24.40;61.40;;;;;;5037073;28;20032;-60
2022/07/29 11:34:24;;;;;;;96.43;91.68;;;24.30;59.80;;;;;;5039817;28;20017;-67
2022/07/29 11:37:11;;;;;;;104.85;99.65;;;24.40;60.00;;;;;;5037836;28;20091;-60
2022/07/29 11:40:03;;;;;;;87.05;82.68;;;24.40;60.00;;;;;;5048070;28;20454;-71
2022/07/29 11:42:32;;;;;;;;;;;24.40;59.30;;;;;;5040026;28;20029;-66
2022/07/29 11:45:20;;;;;;;98.05;93.13;;;24.40;67.30;;;;;;5039224;28;20259;-60
2022/07/29 11:47:45;;;;;;;102.45;97.05;;;24.40;60.10;;;;;;5035862;28;20053;-69
2022/07/29 11:50:13;;;;;;;119.35;113.25;;;24.40;58.80;;;;;;5038096;28;20065;-67
2022/07/29 11:52:45;;;;;;;116.18;110.15;;;24.40;69.00;;;;;;5049253;28;20025;-61
2022/07/29 11:55:14;;;;;;;109.30;103.88;;;24.40;62.00;;;;;;5042242;28;20033;-76
2022/07/29 11:57:53;;;;;;;128.93;122.30;;;24.50;62.30;;;;;;5043778;28;20021;-73
2022/07/29 12:00:34;;;;;;;117.63;111.47;;;24.60;66.30;;;;;;5035822;28;20025;-64
2022/07/29 12:03:03;;;;;;;110.82;105.00;;;24.60;65.10;;;;;;5044435;28;20030;-69
2022/07/29 12:05:46;;;;;;;120.78;114.35;;;24.60;67.80;;;;;;5041849;28;20024;-76
2022/07/29 12:08:22;;;;;;;116.97;111.00;;;24.70;66.40;;;;;;5051098;28;20482;-62
2022/07/29 12:10:50;;;;;;;124.78;118.22;;;24.70;67.10;;;;;;5045578;28;20083;-76
2022/07/29 12:13:19;;;;;;;114.97;109.07;;;24.60;69.20;;;;;;5044463;28;20018;-76
2022/07/29 12:16:00;;;;;;;114.00;107.85;;;24.60;69.50;;;;;;5038509;28;20017;-74
2022/07/29 12:18:26;;;;;;;100.80;95.65;;;24.60;62.70;;;;;;5033672;28;20474;-65
2022/07/29 12:21:03;;;;;;;95.95;90.78;;;24.50;61.00;;;;;;5033491;28;20014;-76
2022/07/29 12:23:32;;;;;;;104.53;99.22;;;24.50;60.70;;;;;;5049635;28;20036;-61
2022/07/29 12:25:58;;;;;;;110.38;104.93;;;24.60;60.60;;;;;;5041069;28;20036;-65
2022/07/29 12:28:24;;;;;;;105.72;100.07;;;24.50;65.80;;;;;;5042258;28;20390;-61
2022/07/29 12:30:50;;;;;;;109.97;104.53;;;24.50;59.60;;;;;;5040801;28;20499;-60
2022/07/29 12:33:19;;;;;;;112.80;107.03;;;24.60;60.80;;;;;;5039625;28;20021;-62
2022/07/29 12:35:51;;;;;;;122.50;116.00;;;24.60;63.40;;;;;;5043099;28;20524;-61
2022/07/29 12:38:17;;;;;;;97.82;92.45;;;24.60;66.80;;;;;;5041674;28;20029;-60